createdAt,value
2023-07-14T00:00:44.405Z,22.06
2023-07-14T00:03:18.063Z,22.09
2023-07-14T00:05:46.205Z,22.08
2023-07-14T00:08:18.843Z,22.00
2023-07-14T00:10:47.267Z,22.03
2023-07-14T00:13:17.859Z,22.01
2023-07-14T00:15:45.633Z,21.98
2023-07-14T00:18:19.374Z,21.99
2023-07-14T00:20:47.892Z,22.02
2023-07-14T00:23:17.090Z,22.00
2023-07-14T00:25:44.962Z,21.94
2023-07-14T00:28:19.716Z,21.87
2023-07-14T00:30:47.919Z,21.84
2023-07-14T00:33:19.458Z,21.83
2023-07-14T00:35:48.734Z,21.87
2023-07-14T00:38:16.872Z,21.82
2023-07-14T00:40:46.522Z,21.83
2023-07-14T00:43:19.083Z,21.89
2023-07-14T00:45:50.434Z,21.92
2023-07-14T00:48:22.090Z,21.87
2023-07-14T00:50:55.493Z,21.88
2023-07-14T00:53:24.547Z,22.05
2023-07-14T00:55:58.428Z,21.87
2023-07-14T00:58:28.178Z,21.81
2023-07-14T01:01:12.652Z,21.86
2023-07-14T01:03:42.820Z,21.74
2023-07-14T01:06:14.766Z,21.60
2023-07-14T01:08:52.836Z,21.46
2023-07-14T01:11:23.849Z,21.47
2023-07-14T01:13:51.737Z,21.35
2023-07-14T01:16:21.640Z,21.36
2023-07-14T01:18:51.859Z,21.35
2023-07-14T01:21:23.238Z,21.38
2023-07-14T01:24:05.734Z,21.41
2023-07-14T01:26:52.390Z,21.33
2023-07-14T01:29:22.157Z,21.05
2023-07-14T01:31:50.815Z,21.03
2023-07-14T01:34:19.374Z,20.93
2023-07-14T01:36:47.766Z,21.06
2023-07-14T01:39:15.737Z,20.89
2023-07-14T01:41:45.182Z,20.82
2023-07-14T01:44:20.835Z,20.71
2023-07-14T01:46:50.274Z,20.71
2023-07-14T01:49:32.256Z,20.48
2023-07-14T01:52:02.593Z,20.42
2023-07-14T01:54:36.233Z,20.18
2023-07-14T01:57:14.080Z,20.10
2023-07-14T01:59:45.477Z,20.08
2023-07-14T02:02:17.819Z,20.09
2023-07-14T02:04:48.217Z,20.04
2023-07-14T02:07:17.042Z,20.11
2023-07-14T02:09:46.565Z,20.02
2023-07-14T02:12:18.562Z,20.01
2023-07-14T02:14:50.930Z,19.88
2023-07-14T02:17:26.586Z,19.68
2023-07-14T02:19:55.451Z,19.79
2023-07-14T02:22:24.462Z,19.92
2023-07-14T02:24:53.525Z,19.94
2023-07-14T02:27:22.678Z,19.96
2023-07-14T02:29:50.473Z,19.95
2023-07-14T02:32:25.273Z,20.04
2023-07-14T02:34:57.504Z,20.08
2023-07-14T02:37:41.733Z,20.13
2023-07-14T02:40:13.579Z,19.87
2023-07-14T02:42:42.771Z,19.82
2023-07-14T02:45:11.267Z,19.72
2023-07-14T02:47:42.336Z,19.84
2023-07-14T02:50:10.645Z,19.82
2023-07-14T02:52:38.414Z,19.80
2023-07-14T02:55:08.259Z,19.81
2023-07-14T02:57:36.419Z,19.80
2023-07-14T03:00:08.988Z,19.89
2023-07-14T03:02:37.083Z,19.95
2023-07-14T03:05:05.728Z,19.79
2023-07-14T03:07:35.685Z,19.83
2023-07-14T03:10:04.070Z,19.85
2023-07-14T03:12:32.164Z,19.73
2023-07-14T03:15:00.319Z,19.62
2023-07-14T03:17:29.503Z,19.75
2023-07-14T03:19:57.326Z,19.55
2023-07-14T03:22:27.291Z,19.72
2023-07-14T03:24:55.163Z,19.65
2023-07-14T03:27:22.865Z,19.69
2023-07-14T03:29:50.663Z,19.69
2023-07-14T03:32:18.554Z,19.63
2023-07-14T03:34:48.186Z,19.70
2023-07-14T03:37:16.016Z,19.79
2023-07-14T03:39:43.942Z,19.73
2023-07-14T03:42:11.701Z,19.77
2023-07-14T03:44:39.488Z,19.59
2023-07-14T03:47:08.306Z,19.60
2023-07-14T03:49:36.985Z,19.56
2023-07-14T03:52:07.208Z,19.67
2023-07-14T03:54:35.670Z,19.71
2023-07-14T03:57:04.149Z,19.71
2023-07-14T03:59:32.141Z,19.62
2023-07-14T04:02:02.552Z,19.48
2023-07-14T04:04:31.585Z,19.66
2023-07-14T04:07:03.138Z,19.65
2023-07-14T04:09:32.593Z,19.64
2023-07-14T04:12:00.368Z,19.72
2023-07-14T04:14:28.084Z,19.59
2023-07-14T04:16:56.069Z,19.55
2023-07-14T04:19:24.100Z,19.60
2023-07-14T04:21:52.029Z,19.43
2023-07-14T04:24:19.784Z,19.32
2023-07-14T04:26:48.944Z,19.41
2023-07-14T04:29:16.686Z,19.42
2023-07-14T04:31:44.467Z,19.45
2023-07-14T04:34:12.388Z,19.35
2023-07-14T04:36:40.200Z,19.21
2023-07-14T04:39:11.781Z,19.38
2023-07-14T04:41:39.923Z,19.41
2023-07-14T04:44:13.954Z,19.42
2023-07-14T04:46:42.691Z,19.43
2023-07-14T04:49:11.217Z,19.56
2023-07-14T04:51:40.184Z,19.51
2023-07-14T04:54:08.484Z,19.49
2023-07-14T04:56:37.486Z,19.55
2023-07-14T04:59:07.793Z,19.38
2023-07-14T05:01:37.338Z,19.40
2023-07-14T05:04:06.180Z,19.35
2023-07-14T05:06:34.055Z,19.34
2023-07-14T05:09:02.048Z,19.28
2023-07-14T05:11:30.042Z,19.40
2023-07-14T05:13:58.275Z,19.54
2023-07-14T05:16:26.175Z,19.44
2023-07-14T05:18:55.481Z,19.60
2023-07-14T05:21:23.306Z,19.59
2023-07-14T05:23:51.076Z,19.71
2023-07-14T05:26:18.915Z,19.55
2023-07-14T05:28:46.887Z,19.64
2023-07-14T05:31:14.780Z,19.71
2023-07-14T05:33:42.943Z,19.78
2023-07-14T05:36:12.400Z,19.69
2023-07-14T05:38:40.482Z,19.79
2023-07-14T05:41:09.569Z,19.75
2023-07-14T05:43:38.227Z,19.71
2023-07-14T05:46:06.462Z,19.61
2023-07-14T05:48:34.355Z,19.66
2023-07-14T05:51:02.157Z,19.66
2023-07-14T05:53:31.602Z,19.62
2023-07-14T05:55:59.641Z,19.63
2023-07-14T05:58:27.511Z,19.80
2023-07-14T06:00:56.479Z,19.82
2023-07-14T06:03:24.596Z,19.81
2023-07-14T06:05:52.714Z,19.83
2023-07-14T06:08:23.685Z,19.83
2023-07-14T06:10:53.662Z,19.74
2023-07-14T06:13:21.522Z,19.73
2023-07-14T06:15:51.473Z,19.72
2023-07-14T06:18:20.461Z,19.77
2023-07-14T06:20:48.267Z,19.79
2023-07-14T06:23:16.168Z,19.82
2023-07-14T06:25:44.744Z,19.90
2023-07-14T06:28:14.073Z,20.01
2023-07-14T06:30:42.278Z,20.05
2023-07-14T06:33:11.388Z,19.98
2023-07-14T06:35:39.566Z,19.96
2023-07-14T06:38:08.306Z,19.89
2023-07-14T06:40:36.497Z,20.09
2023-07-14T06:43:08.761Z,19.91
2023-07-14T06:45:38.880Z,19.95
2023-07-14T06:48:07.684Z,19.95
2023-07-14T06:50:38.776Z,19.98
2023-07-14T06:53:06.864Z,19.95
2023-07-14T06:55:34.870Z,20.01
2023-07-14T06:58:04.289Z,20.09
2023-07-14T07:00:32.397Z,20.07
2023-07-14T07:03:01.774Z,20.12
2023-07-14T07:05:29.655Z,20.24
2023-07-14T07:07:57.474Z,20.30
2023-07-14T07:10:25.381Z,20.40
2023-07-14T07:12:53.203Z,20.32
2023-07-14T07:15:21.239Z,20.31
2023-07-14T07:17:49.282Z,20.19
2023-07-14T07:20:18.605Z,20.29
2023-07-14T07:22:47.960Z,20.36
2023-07-14T07:25:17.633Z,20.35
2023-07-14T07:27:46.367Z,20.41
2023-07-14T07:30:16.054Z,20.41
2023-07-14T07:32:44.092Z,20.66
2023-07-14T07:35:11.960Z,20.65
2023-07-14T07:37:41.614Z,20.75
2023-07-14T07:40:10.826Z,20.77
2023-07-14T07:42:38.716Z,20.55
2023-07-14T07:45:08.192Z,20.65
2023-07-14T07:47:36.745Z,20.80
2023-07-14T07:50:06.227Z,20.86
2023-07-14T07:52:34.858Z,20.89
2023-07-14T07:55:04.639Z,20.82
2023-07-14T07:57:33.862Z,20.79
2023-07-14T08:00:02.084Z,20.62
2023-07-14T08:02:42.498Z,20.66
2023-07-14T08:05:13.509Z,20.79
2023-07-14T08:07:41.824Z,20.71
2023-07-14T08:10:11.566Z,20.76
2023-07-14T08:12:39.394Z,20.93
2023-07-14T08:15:08.409Z,21.09
2023-07-14T08:17:53.995Z,21.21
2023-07-14T08:20:22.162Z,21.17
2023-07-14T08:22:50.101Z,21.16
2023-07-14T08:25:19.426Z,21.02
2023-07-14T08:27:47.566Z,21.08
2023-07-14T08:30:15.780Z,21.16
2023-07-14T08:32:43.845Z,21.24
2023-07-14T08:35:11.973Z,21.20
2023-07-14T08:37:39.803Z,21.24
2023-07-14T08:40:11.957Z,21.27
2023-07-14T08:42:52.201Z,21.06
2023-07-14T08:45:37.211Z,21.18
2023-07-14T08:48:20.250Z,21.23
2023-07-14T08:50:51.986Z,21.36
2023-07-14T08:53:23.789Z,21.41
2023-07-14T08:55:55.312Z,21.46
2023-07-14T08:58:29.248Z,21.48
2023-07-14T09:01:10.048Z,21.69
2023-07-14T09:03:47.362Z,21.61
2023-07-14T09:06:25.885Z,21.37
2023-07-14T09:08:54.920Z,21.19
2023-07-14T09:11:46.419Z,21.17
2023-07-14T09:14:32.742Z,21.40
2023-07-14T09:17:08.216Z,21.47
2023-07-14T09:19:45.786Z,21.27
2023-07-14T09:22:19.397Z,21.52
2023-07-14T09:24:58.595Z,21.54
2023-07-14T09:27:29.761Z,21.88
2023-07-14T09:30:01.108Z,21.81
2023-07-14T09:32:33.982Z,21.86
2023-07-14T09:35:10.742Z,22.11
2023-07-14T09:37:45.007Z,22.15
2023-07-14T09:40:20.308Z,22.05
2023-07-14T09:42:52.408Z,22.07
2023-07-14T09:45:26.013Z,21.90
2023-07-14T09:47:58.102Z,21.71
2023-07-14T09:50:27.600Z,21.56
2023-07-14T09:52:58.071Z,21.60
2023-07-14T09:55:27.524Z,21.81
2023-07-14T09:58:10.995Z,21.79
2023-07-14T10:00:42.769Z,21.72
2023-07-14T10:03:22.862Z,21.63
2023-07-14T10:06:04.308Z,21.77
2023-07-14T10:08:52.484Z,21.86
2023-07-14T10:11:25.405Z,21.79
2023-07-14T10:14:00.748Z,21.84
2023-07-14T10:16:33.392Z,21.98
2023-07-14T10:19:09.258Z,21.99
2023-07-14T10:21:37.698Z,22.06
2023-07-14T10:24:08.535Z,22.17
2023-07-14T10:26:38.745Z,22.25
2023-07-14T10:29:08.324Z,22.27
2023-07-14T10:31:42.962Z,22.56
2023-07-14T10:34:48.497Z,22.68
2023-07-14T10:37:25.514Z,22.42
2023-07-14T10:39:59.744Z,22.22
2023-07-14T10:42:36.512Z,22.14
2023-07-14T10:45:06.079Z,21.97
2023-07-14T10:47:48.902Z,21.89
2023-07-14T10:50:21.375Z,22.07
2023-07-14T10:53:08.118Z,22.36
2023-07-14T10:55:40.878Z,22.54
2023-07-14T10:58:15.740Z,22.37
2023-07-14T11:00:47.469Z,22.44
2023-07-14T11:03:26.706Z,22.54
2023-07-14T11:06:00.402Z,22.64
2023-07-14T11:08:31.624Z,22.63
2023-07-14T11:11:08.015Z,22.69
2023-07-14T11:13:45.986Z,22.56
2023-07-14T11:16:23.416Z,22.67
2023-07-14T11:19:00.845Z,22.85
2023-07-14T11:21:36.152Z,23.02
2023-07-14T11:24:18.028Z,22.72
2023-07-14T11:27:07.223Z,22.55
2023-07-14T11:29:44.479Z,22.70
2023-07-14T11:32:21.842Z,22.71
2023-07-14T11:35:08.553Z,22.62
2023-07-14T11:37:49.282Z,22.72
2023-07-14T11:40:22.562Z,22.84
2023-07-14T11:42:53.553Z,23.02
2023-07-14T11:45:24.648Z,22.94
2023-07-14T11:47:53.334Z,23.00
2023-07-14T11:50:41.901Z,23.29
2023-07-14T11:53:20.777Z,23.39
2023-07-14T11:55:52.184Z,23.19
2023-07-14T11:58:28.626Z,23.32
2023-07-14T12:01:01.807Z,23.47
2023-07-14T12:03:35.921Z,23.54
2023-07-14T12:06:27.281Z,23.83
2023-07-14T12:09:12.087Z,23.42
2023-07-14T12:11:57.765Z,23.44
2023-07-14T12:14:32.315Z,23.66
2023-07-14T12:17:02.036Z,23.57
2023-07-14T12:19:33.451Z,23.60
2023-07-14T12:22:11.073Z,23.89
2023-07-14T12:24:45.187Z,23.91
2023-07-14T12:27:26.404Z,23.74
2023-07-14T12:30:04.408Z,23.82
2023-07-14T12:32:32.242Z,23.92
2023-07-14T12:35:00.005Z,23.63
2023-07-14T12:37:34.886Z,23.37
2023-07-14T12:40:05.220Z,23.40
2023-07-14T12:42:34.293Z,23.46
2023-07-14T12:45:03.119Z,23.53
2023-07-14T12:47:34.438Z,23.41
2023-07-14T12:50:02.384Z,23.44
2023-07-14T12:52:35.882Z,23.38
2023-07-14T12:55:11.949Z,23.41
2023-07-14T12:57:40.334Z,23.23
2023-07-14T13:00:23.468Z,23.33
2023-07-14T13:02:53.014Z,23.12
2023-07-14T13:05:22.495Z,22.98
2023-07-14T13:07:54.078Z,23.12
2023-07-14T13:10:26.043Z,23.12
2023-07-14T13:12:55.612Z,23.21
2023-07-14T13:15:28.339Z,23.15
2023-07-14T13:17:58.521Z,23.43
2023-07-14T13:20:31.598Z,23.34
2023-07-14T13:23:23.220Z,23.16
2023-07-14T13:25:57.688Z,23.26
2023-07-14T13:28:33.784Z,23.16
2023-07-14T13:31:07.798Z,23.23
2023-07-14T13:33:35.875Z,23.25
2023-07-14T13:36:08.991Z,23.19
2023-07-14T13:38:39.853Z,23.31
2023-07-14T13:41:18.270Z,23.28
2023-07-14T13:43:47.935Z,23.16
2023-07-14T13:46:21.747Z,23.25
2023-07-14T13:48:49.642Z,23.21
2023-07-14T13:51:22.184Z,23.20
2023-07-14T13:53:51.943Z,23.14
2023-07-14T13:56:21.754Z,23.11
2023-07-14T13:58:50.947Z,23.16
2023-07-14T14:01:21.826Z,23.40
2023-07-14T14:03:51.726Z,23.58
2023-07-14T14:06:21.613Z,23.73
2023-07-14T14:08:51.184Z,23.89
2023-07-14T14:11:19.255Z,24.01
2023-07-14T14:13:46.982Z,24.09
2023-07-14T14:16:18.415Z,24.18
2023-07-14T14:18:50.543Z,24.30
2023-07-14T14:21:19.144Z,24.38
2023-07-14T14:23:47.707Z,24.40
2023-07-14T14:26:17.373Z,24.44
2023-07-14T14:28:45.463Z,24.39
2023-07-14T14:31:14.037Z,24.44
2023-07-14T14:33:43.377Z,24.40
2023-07-14T14:36:14.342Z,24.36
2023-07-14T14:38:46.598Z,24.41
2023-07-14T14:41:23.358Z,24.51
2023-07-14T14:43:53.233Z,24.31
2023-07-14T14:46:21.320Z,24.34
2023-07-14T14:48:49.600Z,24.49
2023-07-14T14:51:17.359Z,24.57
2023-07-14T14:53:45.293Z,24.54
2023-07-14T14:56:25.154Z,24.47
2023-07-14T14:58:57.271Z,24.53
2023-07-14T15:01:30.529Z,24.38
2023-07-14T15:03:59.374Z,24.63
2023-07-14T15:06:27.432Z,24.48
2023-07-14T15:08:55.440Z,24.22
2023-07-14T15:11:26.288Z,24.42
2023-07-14T15:13:54.401Z,24.45
2023-07-14T15:16:22.734Z,24.58
2023-07-14T15:18:50.535Z,24.46
2023-07-14T15:21:21.435Z,24.49
2023-07-14T15:23:50.261Z,24.46
2023-07-14T15:26:23.927Z,24.44
2023-07-14T15:28:55.006Z,24.42
2023-07-14T15:31:23.005Z,24.41
2023-07-14T15:33:50.957Z,24.19
2023-07-14T15:36:19.920Z,24.26
2023-07-14T15:38:48.208Z,24.24
2023-07-14T15:41:21.274Z,24.48
2023-07-14T15:43:52.073Z,24.82
2023-07-14T15:46:23.552Z,24.76
2023-07-14T15:48:54.051Z,24.79
2023-07-14T15:51:24.231Z,24.71
2023-07-14T15:53:56.547Z,24.46
2023-07-14T15:56:24.521Z,24.50
2023-07-14T15:58:52.653Z,24.52
2023-07-14T16:01:29.162Z,24.43
2023-07-14T16:04:00.467Z,24.41
2023-07-14T16:06:28.414Z,24.38
2023-07-14T16:08:57.323Z,24.45
2023-07-14T16:11:30.715Z,24.44
2023-07-14T16:13:59.350Z,24.39
2023-07-14T16:16:28.632Z,24.32
2023-07-14T16:18:57.334Z,24.39
2023-07-14T16:21:30.940Z,24.34
2023-07-14T16:24:00.995Z,24.21
2023-07-14T16:26:29.535Z,23.88
2023-07-14T16:28:57.878Z,23.92
2023-07-14T16:31:30.502Z,23.98
2023-07-14T16:33:58.449Z,24.06
2023-07-14T16:36:30.733Z,24.07
2023-07-14T16:39:03.023Z,24.20
2023-07-14T16:41:31.706Z,24.33
2023-07-14T16:43:59.517Z,24.22
2023-07-14T16:46:33.261Z,24.23
2023-07-14T16:49:01.539Z,24.24
2023-07-14T16:51:30.513Z,24.10
2023-07-14T16:54:00.328Z,23.95
2023-07-14T16:56:28.346Z,24.01
2023-07-14T16:58:56.356Z,24.13
2023-07-14T17:01:24.633Z,24.06
2023-07-14T17:03:55.021Z,24.11
2023-07-14T17:06:37.192Z,24.13
2023-07-14T17:09:13.854Z,24.26
2023-07-14T17:11:42.534Z,24.38
2023-07-14T17:14:13.382Z,24.51
2023-07-14T17:16:41.293Z,24.46
2023-07-14T17:19:16.115Z,24.41
2023-07-14T17:21:46.723Z,24.37
2023-07-14T17:24:16.475Z,24.48
2023-07-14T17:26:44.771Z,24.52
2023-07-14T17:29:17.535Z,24.53
2023-07-14T17:31:45.109Z,24.61
2023-07-14T17:34:14.401Z,24.54
2023-07-14T17:36:42.625Z,24.49
2023-07-14T17:39:23.030Z,24.44
2023-07-14T17:41:57.465Z,24.56
2023-07-14T17:44:26.835Z,24.57
2023-07-14T17:46:54.681Z,24.61
2023-07-14T17:49:23.912Z,24.69
2023-07-14T17:51:54.296Z,24.58
2023-07-14T17:54:25.829Z,24.60
2023-07-14T17:56:54.247Z,24.55
2023-07-14T17:59:26.201Z,24.55
2023-07-14T18:01:57.801Z,24.52
2023-07-14T18:04:27.167Z,24.62
2023-07-14T18:06:54.992Z,24.67
2023-07-14T18:09:28.025Z,24.72
2023-07-14T18:11:57.474Z,24.75
2023-07-14T18:14:25.638Z,24.76
2023-07-14T18:16:58.154Z,24.80
2023-07-14T18:19:29.547Z,24.83
2023-07-14T18:21:57.420Z,24.86
2023-07-14T18:24:37.574Z,24.88
2023-07-14T18:27:17.797Z,24.96
2023-07-14T18:29:45.711Z,24.95
2023-07-14T18:32:13.869Z,24.98
2023-07-14T18:34:45.338Z,25.00
2023-07-14T18:37:15.575Z,24.99
2023-07-14T18:39:47.421Z,25.01
2023-07-14T18:42:20.899Z,25.04
2023-07-14T18:44:49.870Z,25.04
2023-07-14T18:47:19.295Z,25.04
2023-07-14T18:49:48.936Z,25.05
2023-07-14T18:52:18.948Z,25.04
2023-07-14T18:54:48.250Z,25.05
2023-07-14T18:57:19.938Z,25.04
2023-07-14T18:59:48.585Z,25.04
2023-07-14T19:02:31.307Z,25.09
2023-07-14T19:05:08.178Z,25.02
2023-07-14T19:07:36.896Z,24.99
2023-07-14T19:10:07.196Z,24.96
2023-07-14T19:12:36.916Z,24.93
2023-07-14T19:15:18.572Z,24.97
2023-07-14T19:17:48.012Z,24.91
2023-07-14T19:20:20.265Z,24.93
2023-07-14T19:22:51.242Z,24.92
2023-07-14T19:25:21.206Z,24.85
2023-07-14T19:27:50.301Z,24.88
2023-07-14T19:30:22.624Z,24.86
2023-07-14T19:32:57.655Z,24.89
2023-07-14T19:35:27.507Z,24.90
2023-07-14T19:37:55.555Z,24.94
2023-07-14T19:40:25.298Z,24.95
2023-07-14T19:42:53.464Z,24.97
2023-07-14T19:45:25.877Z,25.00
2023-07-14T19:47:53.980Z,25.02
2023-07-14T19:50:23.630Z,24.97
2023-07-14T19:52:53.503Z,25.00
2023-07-14T19:55:23.819Z,25.02
2023-07-14T19:57:53.253Z,25.04
2023-07-14T20:00:23.493Z,25.05
2023-07-14T20:02:52.865Z,25.06
2023-07-14T20:05:25.489Z,25.07
2023-07-14T20:07:55.432Z,25.09
2023-07-14T20:10:24.429Z,25.09
2023-07-14T20:12:53.792Z,25.11
2023-07-14T20:15:24.971Z,25.13
2023-07-14T20:17:53.609Z,25.11
2023-07-14T20:20:21.484Z,25.11
2023-07-14T20:22:52.740Z,25.13
2023-07-14T20:25:23.317Z,25.10
2023-07-14T20:27:51.114Z,25.08
2023-07-14T20:30:21.076Z,25.10
2023-07-14T20:32:49.620Z,25.09
2023-07-14T20:35:19.797Z,25.10
2023-07-14T20:37:49.586Z,25.09
2023-07-14T20:40:19.907Z,25.09
2023-07-14T20:42:49.124Z,25.09
2023-07-14T20:45:19.147Z,25.06
2023-07-14T20:47:47.598Z,25.04
2023-07-14T20:50:16.817Z,24.99
2023-07-14T20:52:47.990Z,24.95
2023-07-14T20:55:27.026Z,25.00
2023-07-14T20:57:56.358Z,24.97
2023-07-14T21:00:24.609Z,24.93
2023-07-14T21:02:53.056Z,24.88
2023-07-14T21:05:21.259Z,24.91
2023-07-14T21:07:49.034Z,24.90
2023-07-14T21:10:18.155Z,24.90
2023-07-14T21:12:47.074Z,24.87
2023-07-14T21:15:18.339Z,24.87
2023-07-14T21:17:46.350Z,24.87
2023-07-14T21:20:15.707Z,24.82
2023-07-14T21:22:44.565Z,24.83
2023-07-14T21:25:16.176Z,24.78
2023-07-14T21:27:44.210Z,24.76
2023-07-14T21:30:12.926Z,24.78
2023-07-14T21:32:42.406Z,24.77
2023-07-14T21:35:20.309Z,24.79
2023-07-14T21:37:48.772Z,24.77
2023-07-14T21:40:18.025Z,24.78
2023-07-14T21:42:48.202Z,24.79
2023-07-14T21:45:17.931Z,24.80
2023-07-14T21:47:49.063Z,24.80
2023-07-14T21:50:17.211Z,24.82
2023-07-14T21:52:52.193Z,24.85
2023-07-14T21:55:20.254Z,24.83
2023-07-14T21:57:48.008Z,24.82
2023-07-14T22:00:18.225Z,24.79
2023-07-14T22:02:47.707Z,24.80
2023-07-14T22:05:16.891Z,24.79
2023-07-14T22:07:45.830Z,24.81
2023-07-14T22:10:18.204Z,24.80
2023-07-14T22:12:46.108Z,24.74
2023-07-14T22:15:22.046Z,24.74
2023-07-14T22:17:52.592Z,24.72
2023-07-14T22:20:22.280Z,24.72
2023-07-14T22:22:50.261Z,24.72
2023-07-14T22:25:18.325Z,24.69
2023-07-14T22:27:46.093Z,24.65
2023-07-14T22:30:15.017Z,24.65
2023-07-14T22:32:47.517Z,24.67
2023-07-14T22:35:17.072Z,24.66
2023-07-14T22:37:46.435Z,24.69
2023-07-14T22:40:15.503Z,24.69
2023-07-14T22:42:44.063Z,24.67
2023-07-14T22:45:14.360Z,24.67
2023-07-14T22:47:44.220Z,24.67
2023-07-14T22:50:15.011Z,24.68
2023-07-14T22:52:45.105Z,24.68
2023-07-14T22:55:17.987Z,24.72
2023-07-14T22:57:47.631Z,24.75
2023-07-14T23:00:17.886Z,24.77
2023-07-14T23:02:47.048Z,24.79
2023-07-14T23:05:17.023Z,24.82
2023-07-14T23:07:48.301Z,24.82
2023-07-14T23:10:16.556Z,24.83
2023-07-14T23:12:44.362Z,24.86
2023-07-14T23:15:17.163Z,24.83
2023-07-14T23:17:45.945Z,24.79
2023-07-14T23:20:15.595Z,24.79
2023-07-14T23:22:43.848Z,24.79
2023-07-14T23:25:21.680Z,24.86
2023-07-14T23:27:49.567Z,24.85
2023-07-14T23:30:17.881Z,24.84
2023-07-14T23:32:45.729Z,24.86
2023-07-14T23:35:17.601Z,24.86
2023-07-14T23:37:45.726Z,24.83
2023-07-14T23:40:15.770Z,24.79
2023-07-14T23:42:45.855Z,24.82
2023-07-14T23:45:20.219Z,24.83
2023-07-14T23:47:48.373Z,24.76
2023-07-14T23:50:16.846Z,24.69
2023-07-14T23:52:44.900Z,24.68
2023-07-14T23:55:17.830Z,24.68
2023-07-14T23:57:47.228Z,24.68
